Etusivu
METAR-TAF:

METAR-TAF

Lentoasemat :

Dole, Ranska

Leveyspiiri: 47-02-34N, Pituuspiiri: 005-26-06E, korkeus merenpinnasta: 196 m

Tämänhetkinen sää

Tämä raportti tehtiin 15 minuuttia sitten, kello 15.00 UTC
Tuuli 15 kn etelästä/lounaasta
Lämpötila 25°C
Kosteus 44%
Ilmanpaine 1010 hPa
Näkyvyys 10 km tai enemmän
ei pilviä alle 1500 m:ssä eikä cumulonimbus-pilviä

METAR: LFGJ 141500Z AUTO 20015KT CAVOK 25/12 Q1010 BECMG 19015G25KT

Aika: 17:15 (15:15 UTC)

Sääennuste

Tämä raportti tehtiin 1 tunti ja 15 minuuttia sitten, kello 14.00 UTC
Ennuste voimassa 14. päivästä klo 15 UTC - 14. päivään klo 24 UTC
Tuuli 15 kn etelästä puuskistuen 25 kn:hen
Näkyvyys 10 km tai enemmän
ei pilviä alle 1500 m:ssä eikä cumulonimbus-pilviä

TAF: LFGJ 141400Z 1415/1424 19015G25KT CAVOK

Säähavainnot ja -ennusteet yli 4000 lentoasemalta (METAR- ja TAF-raportit).

Käytössä olevat sääasemat on merkitty karttaan keltaisilla ja punaisilla pisteillä.

Aseta hiiri pisteen päälle nähdäksesi sääaseman nimen.

Klikkaa sitten nähdäksesi säähavainnot ja -ennusteet.

Kartan vaihtaminen: klikkaa mustalla rastilla varustettuja vihreitä pisteitä, niin voit zoomata sisään; viivalla varustettua vihreää pistettä, niin voit zoomata ulos tai vihreitä nuolia, niin pääset viereisille kartoille.


METAR-TAF: